sensor_id;sensor_type;location;lat;lon;timestamp;P1;durP1;ratioP1;P2;durP2;ratioP2
22780;SDS011;11557;50.884;4.322;2023-10-13T00:01:22;23.13;;;10.15;;
22780;SDS011;11557;50.884;4.322;2023-10-13T00:03:48;19.05;;;10.48;;
22780;SDS011;11557;50.884;4.322;2023-10-13T00:06:14;17.65;;;9.77;;
22780;SDS011;11557;50.884;4.322;2023-10-13T00:08:40;21.23;;;10.35;;
22780;SDS011;11557;50.884;4.322;2023-10-13T00:11:11;20.98;;;10.13;;
22780;SDS011;11557;50.884;4.322;2023-10-13T00:13:37;19.67;;;10.88;;
22780;SDS011;11557;50.884;4.322;2023-10-13T00:16:15;28.65;;;10.25;;
22780;SDS011;11557;50.884;4.322;2023-10-13T00:18:48;24.48;;;11.05;;
22780;SDS011;11557;50.884;4.322;2023-10-13T00:21:19;20.80;;;10.07;;
22780;SDS011;11557;50.884;4.322;2023-10-13T00:23:56;19.48;;;10.85;;
22780;SDS011;11557;50.884;4.322;2023-10-13T00:26:27;18.10;;;11.50;;
22780;SDS011;11557;50.884;4.322;2023-10-13T00:28:54;25.05;;;13.50;;
22780;SDS011;11557;50.884;4.322;2023-10-13T00:31:46;26.05;;;13.95;;
22780;SDS011;11557;50.884;4.322;2023-10-13T00:34:13;23.23;;;11.88;;
22780;SDS011;11557;50.884;4.322;2023-10-13T00:36:44;18.88;;;11.48;;
22780;SDS011;11557;50.884;4.322;2023-10-13T00:39:14;28.80;;;13.20;;
22780;SDS011;11557;50.884;4.322;2023-10-13T00:41:44;24.48;;;12.45;;
22780;SDS011;11557;50.884;4.322;2023-10-13T00:44:23;22.15;;;11.48;;
22780;SDS011;11557;50.884;4.322;2023-10-13T00:47:03;28.85;;;13.35;;
22780;SDS011;11557;50.884;4.322;2023-10-13T00:49:33;22.92;;;12.43;;
22780;SDS011;11557;50.884;4.322;2023-10-13T00:52:04;26.17;;;12.60;;
22780;SDS011;11557;50.884;4.322;2023-10-13T00:54:36;22.90;;;11.35;;
22780;SDS011;11557;50.884;4.322;2023-10-13T00:57:03;26.95;;;12.77;;
22780;SDS011;11557;50.884;4.322;2023-10-13T00:59:51;26.10;;;12.88;;
22780;SDS011;11557;50.884;4.322;2023-10-13T01:02:18;24.60;;;13.25;;
22780;SDS011;11557;50.884;4.322;2023-10-13T01:05:03;29.00;;;12.18;;
22780;SDS011;11557;50.884;4.322;2023-10-13T01:07:29;25.20;;;13.25;;
22780;SDS011;11557;50.884;4.322;2023-10-13T01:09:55;27.75;;;12.07;;
22780;SDS011;11557;50.884;4.322;2023-10-13T01:12:21;22.45;;;12.00;;
22780;SDS011;11557;50.884;4.322;2023-10-13T01:14:50;24.58;;;13.13;;
22780;SDS011;11557;50.884;4.322;2023-10-13T01:17:16;22.02;;;11.68;;
22780;SDS011;11557;50.884;4.322;2023-10-13T01:19:43;23.80;;;12.80;;
22780;SDS011;11557;50.884;4.322;2023-10-13T01:22:10;23.05;;;12.75;;
22780;SDS011;11557;50.884;4.322;2023-10-13T01:24:36;29.15;;;14.15;;
22780;SDS011;11557;50.884;4.322;2023-10-13T01:27:05;30.20;;;13.57;;
22780;SDS011;11557;50.884;4.322;2023-10-13T01:29:50;28.27;;;13.40;;
22780;SDS011;11557;50.884;4.322;2023-10-13T01:32:17;25.58;;;12.88;;
22780;SDS011;11557;50.884;4.322;2023-10-13T01:34:44;29.92;;;13.65;;
22780;SDS011;11557;50.884;4.322;2023-10-13T01:37:11;32.45;;;15.82;;
22780;SDS011;11557;50.884;4.322;2023-10-13T01:39:37;26.23;;;14.23;;
22780;SDS011;11557;50.884;4.322;2023-10-13T01:42:03;36.03;;;13.55;;
22780;SDS011;11557;50.884;4.322;2023-10-13T01:44:28;25.15;;;13.13;;
22780;SDS011;11557;50.884;4.322;2023-10-13T01:46:59;27.58;;;13.50;;
22780;SDS011;11557;50.884;4.322;2023-10-13T01:49:32;30.08;;;12.88;;
22780;SDS011;11557;50.884;4.322;2023-10-13T01:52:08;38.53;;;12.52;;
22780;SDS011;11557;50.884;4.322;2023-10-13T01:54:37;29.80;;;13.60;;
22780;SDS011;11557;50.884;4.322;2023-10-13T01:57:08;31.58;;;13.38;;
22780;SDS011;11557;50.884;4.322;2023-10-13T01:59:39;31.02;;;13.95;;
22780;SDS011;11557;50.884;4.322;2023-10-13T02:02:12;27.67;;;12.70;;
22780;SDS011;11557;50.884;4.322;2023-10-13T02:04:39;26.55;;;13.07;;
22780;SDS011;11557;50.884;4.322;2023-10-13T02:07:07;32.03;;;13.18;;
22780;SDS011;11557;50.884;4.322;2023-10-13T02:09:33;25.17;;;13.02;;
22780;SDS011;11557;50.884;4.322;2023-10-13T02:12:02;22.02;;;11.70;;
22780;SDS011;11557;50.884;4.322;2023-10-13T02:14:28;30.80;;;13.80;;
22780;SDS011;11557;50.884;4.322;2023-10-13T02:16:54;24.90;;;11.88;;
22780;SDS011;11557;50.884;4.322;2023-10-13T02:19:37;24.45;;;10.98;;
22780;SDS011;11557;50.884;4.322;2023-10-13T02:22:05;26.98;;;11.57;;
22780;SDS011;11557;50.884;4.322;2023-10-13T02:24:34;23.20;;;12.77;;
22780;SDS011;11557;50.884;4.322;2023-10-13T02:27:04;21.83;;;11.80;;
22780;SDS011;11557;50.884;4.322;2023-10-13T02:29:42;18.42;;;10.85;;
22780;SDS011;11557;50.884;4.322;2023-10-13T02:32:11;18.80;;;10.57;;
22780;SDS011;11557;50.884;4.322;2023-10-13T02:34:46;18.70;;;11.50;;
22780;SDS011;11557;50.884;4.322;2023-10-13T02:37:12;24.25;;;11.32;;
22780;SDS011;11557;50.884;4.322;2023-10-13T02:39:38;25.20;;;10.27;;
22780;SDS011;11557;50.884;4.322;2023-10-13T02:42:09;27.77;;;11.55;;
22780;SDS011;11557;50.884;4.322;2023-10-13T02:44:48;26.02;;;9.98;;
22780;SDS011;11557;50.884;4.322;2023-10-13T02:47:14;18.80;;;10.20;;
22780;SDS011;11557;50.884;4.322;2023-10-13T02:49:40;20.45;;;9.82;;
22780;SDS011;11557;50.884;4.322;2023-10-13T02:52:12;16.85;;;9.60;;
22780;SDS011;11557;50.884;4.322;2023-10-13T02:54:41;16.75;;;8.82;;
22780;SDS011;11557;50.884;4.322;2023-10-13T02:57:16;20.25;;;9.27;;
22780;SDS011;11557;50.884;4.322;2023-10-13T02:59:43;19.80;;;8.73;;
22780;SDS011;11557;50.884;4.322;2023-10-13T03:02:12;17.58;;;9.30;;
22780;SDS011;11557;50.884;4.322;2023-10-13T03:04:47;21.63;;;9.55;;
22780;SDS011;11557;50.884;4.322;2023-10-13T03:07:13;18.60;;;8.88;;
22780;SDS011;11557;50.884;4.322;2023-10-13T03:09:48;17.42;;;9.65;;
22780;SDS011;11557;50.884;4.322;2023-10-13T03:12:16;20.98;;;9.57;;
22780;SDS011;11557;50.884;4.322;2023-10-13T03:14:42;17.10;;;8.35;;
22780;SDS011;11557;50.884;4.322;2023-10-13T03:17:12;19.98;;;8.40;;
22780;SDS011;11557;50.884;4.322;2023-10-13T03:19:47;19.50;;;8.40;;
22780;SDS011;11557;50.884;4.322;2023-10-13T03:22:16;18.25;;;8.70;;
22780;SDS011;11557;50.884;4.322;2023-10-13T03:24:43;19.13;;;8.38;;
22780;SDS011;11557;50.884;4.322;2023-10-13T03:27:16;16.08;;;7.63;;
22780;SDS011;11557;50.884;4.322;2023-10-13T03:29:48;20.27;;;7.68;;
22780;SDS011;11557;50.884;4.322;2023-10-13T03:32:20;15.55;;;8.35;;
22780;SDS011;11557;50.884;4.322;2023-10-13T03:34:46;16.58;;;8.25;;
22780;SDS011;11557;50.884;4.322;2023-10-13T03:37:20;17.80;;;7.53;;
22780;SDS011;11557;50.884;4.322;2023-10-13T03:40:05;16.00;;;8.57;;
22780;SDS011;11557;50.884;4.322;2023-10-13T03:42:52;15.57;;;8.38;;
22780;SDS011;11557;50.884;4.322;2023-10-13T03:45:38;20.25;;;8.70;;
22780;SDS011;11557;50.884;4.322;2023-10-13T03:48:07;21.58;;;8.25;;
22780;SDS011;11557;50.884;4.322;2023-10-13T03:50:50;19.33;;;8.07;;
22780;SDS011;11557;50.884;4.322;2023-10-13T03:53:28;25.15;;;9.38;;
22780;SDS011;11557;50.884;4.322;2023-10-13T03:56:01;23.08;;;9.93;;
22780;SDS011;11557;50.884;4.322;2023-10-13T03:58:37;20.17;;;8.55;;
22780;SDS011;11557;50.884;4.322;2023-10-13T04:01:07;28.35;;;8.77;;
22780;SDS011;11557;50.884;4.322;2023-10-13T04:03:34;22.88;;;9.52;;
22780;SDS011;11557;50.884;4.322;2023-10-13T04:06:01;26.17;;;8.23;;
22780;SDS011;11557;50.884;4.322;2023-10-13T04:08:33;17.20;;;7.63;;
22780;SDS011;11557;50.884;4.322;2023-10-13T04:11:08;21.85;;;8.45;;
22780;SDS011;11557;50.884;4.322;2023-10-13T04:13:52;16.55;;;8.23;;
22780;SDS011;11557;50.884;4.322;2023-10-13T04:16:36;14.20;;;7.30;;
22780;SDS011;11557;50.884;4.322;2023-10-13T04:19:17;24.88;;;9.40;;
22780;SDS011;11557;50.884;4.322;2023-10-13T04:21:49;13.05;;;6.68;;
22780;SDS011;11557;50.884;4.322;2023-10-13T04:24:25;20.83;;;7.53;;
22780;SDS011;11557;50.884;4.322;2023-10-13T04:27:12;23.75;;;7.95;;
22780;SDS011;11557;50.884;4.322;2023-10-13T04:29:40;20.95;;;7.03;;
22780;SDS011;11557;50.884;4.322;2023-10-13T04:32:24;17.63;;;6.13;;
22780;SDS011;11557;50.884;4.322;2023-10-13T04:35:04;17.15;;;8.10;;
22780;SDS011;11557;50.884;4.322;2023-10-13T04:37:39;23.63;;;7.70;;
22780;SDS011;11557;50.884;4.322;2023-10-13T04:40:23;14.70;;;7.35;;
22780;SDS011;11557;50.884;4.322;2023-10-13T04:43:00;20.75;;;7.50;;
22780;SDS011;11557;50.884;4.322;2023-10-13T04:45:52;16.00;;;5.88;;
22780;SDS011;11557;50.884;4.322;2023-10-13T04:48:20;17.50;;;7.35;;
22780;SDS011;11557;50.884;4.322;2023-10-13T04:50:49;17.45;;;5.53;;
22780;SDS011;11557;50.884;4.322;2023-10-13T04:53:24;19.63;;;5.63;;
22780;SDS011;11557;50.884;4.322;2023-10-13T04:55:52;16.52;;;5.93;;
22780;SDS011;11557;50.884;4.322;2023-10-13T04:58:44;17.77;;;5.45;;
22780;SDS011;11557;50.884;4.322;2023-10-13T05:01:29;21.20;;;7.15;;
22780;SDS011;11557;50.884;4.322;2023-10-13T05:03:54;16.45;;;5.82;;
22780;SDS011;11557;50.884;4.322;2023-10-13T05:06:38;21.57;;;6.57;;
22780;SDS011;11557;50.884;4.322;2023-10-13T05:09:24;12.98;;;5.30;;
22780;SDS011;11557;50.884;4.322;2023-10-13T05:12:08;25.67;;;6.78;;
22780;SDS011;11557;50.884;4.322;2023-10-13T05:14:52;18.23;;;6.47;;
22780;SDS011;11557;50.884;4.322;2023-10-13T05:17:36;16.77;;;6.67;;
22780;SDS011;11557;50.884;4.322;2023-10-13T05:20:20;14.63;;;6.00;;
22780;SDS011;11557;50.884;4.322;2023-10-13T05:23:04;18.80;;;6.43;;
22780;SDS011;11557;50.884;4.322;2023-10-13T05:25:48;16.85;;;6.50;;
22780;SDS011;11557;50.884;4.322;2023-10-13T05:28:32;17.43;;;6.97;;
22780;SDS011;11557;50.884;4.322;2023-10-13T05:31:16;20.48;;;6.90;;
22780;SDS011;11557;50.884;4.322;2023-10-13T05:34:00;20.67;;;7.90;;
22780;SDS011;11557;50.884;4.322;2023-10-13T05:36:44;20.70;;;6.50;;
22780;SDS011;11557;50.884;4.322;2023-10-13T05:39:28;20.98;;;7.45;;
22780;SDS011;11557;50.884;4.322;2023-10-13T05:42:12;25.38;;;6.18;;
22780;SDS011;11557;50.884;4.322;2023-10-13T05:44:56;16.98;;;6.15;;
22780;SDS011;11557;50.884;4.322;2023-10-13T05:47:42;13.38;;;4.75;;
22780;SDS011;11557;50.884;4.322;2023-10-13T05:50:10;21.30;;;5.47;;
22780;SDS011;11557;50.884;4.322;2023-10-13T05:52:46;21.42;;;5.45;;
22780;SDS011;11557;50.884;4.322;2023-10-13T05:55:30;11.90;;;5.05;;
22780;SDS011;11557;50.884;4.322;2023-10-13T05:58:25;23.90;;;5.67;;
22780;SDS011;11557;50.884;4.322;2023-10-13T06:01:11;12.68;;;4.90;;
22780;SDS011;11557;50.884;4.322;2023-10-13T06:03:56;17.55;;;6.20;;
22780;SDS011;11557;50.884;4.322;2023-10-13T06:06:40;18.77;;;5.80;;
22780;SDS011;11557;50.884;4.322;2023-10-13T06:09:23;13.90;;;7.30;;
22780;SDS011;11557;50.884;4.322;2023-10-13T06:12:07;13.27;;;4.57;;
22780;SDS011;11557;50.884;4.322;2023-10-13T06:14:51;21.63;;;5.70;;
22780;SDS011;11557;50.884;4.322;2023-10-13T06:17:36;20.67;;;4.43;;
22780;SDS011;11557;50.884;4.322;2023-10-13T06:20:20;18.30;;;4.63;;
22780;SDS011;11557;50.884;4.322;2023-10-13T06:23:04;27.65;;;7.20;;
22780;SDS011;11557;50.884;4.322;2023-10-13T06:25:51;12.38;;;4.30;;
22780;SDS011;11557;50.884;4.322;2023-10-13T06:28:36;17.27;;;5.15;;
22780;SDS011;11557;50.884;4.322;2023-10-13T06:31:08;14.85;;;4.07;;
22780;SDS011;11557;50.884;4.322;2023-10-13T06:33:48;13.80;;;5.47;;
22780;SDS011;11557;50.884;4.322;2023-10-13T06:36:13;11.68;;;4.78;;
22780;SDS011;11557;50.884;4.322;2023-10-13T06:38:39;18.83;;;5.60;;
22780;SDS011;11557;50.884;4.322;2023-10-13T06:41:06;15.77;;;5.45;;
22780;SDS011;11557;50.884;4.322;2023-10-13T06:43:36;16.20;;;5.50;;
22780;SDS011;11557;50.884;4.322;2023-10-13T06:46:05;15.27;;;5.25;;
22780;SDS011;11557;50.884;4.322;2023-10-13T06:48:32;13.70;;;5.07;;
22780;SDS011;11557;50.884;4.322;2023-10-13T06:51:00;10.57;;;4.95;;
22780;SDS011;11557;50.884;4.322;2023-10-13T06:53:30;21.55;;;5.57;;
22780;SDS011;11557;50.884;4.322;2023-10-13T06:56:01;19.48;;;5.60;;
22780;SDS011;11557;50.884;4.322;2023-10-13T06:58:30;21.60;;;6.90;;
22780;SDS011;11557;50.884;4.322;2023-10-13T07:00:57;7.75;;;4.38;;
22780;SDS011;11557;50.884;4.322;2023-10-13T07:03:26;12.88;;;4.60;;
22780;SDS011;11557;50.884;4.322;2023-10-13T07:05:52;21.23;;;4.20;;
22780;SDS011;11557;50.884;4.322;2023-10-13T07:08:19;19.13;;;5.40;;
22780;SDS011;11557;50.884;4.322;2023-10-13T07:10:51;15.52;;;4.07;;
22780;SDS011;11557;50.884;4.322;2023-10-13T07:13:43;15.93;;;4.18;;
22780;SDS011;11557;50.884;4.322;2023-10-13T07:16:15;11.48;;;4.45;;
22780;SDS011;11557;50.884;4.322;2023-10-13T07:18:40;18.63;;;5.32;;
22780;SDS011;11557;50.884;4.322;2023-10-13T07:21:14;11.82;;;4.22;;
22780;SDS011;11557;50.884;4.322;2023-10-13T07:23:41;15.25;;;5.00;;
22780;SDS011;11557;50.884;4.322;2023-10-13T07:26:14;12.25;;;4.03;;
22780;SDS011;11557;50.884;4.322;2023-10-13T07:28:40;12.25;;;4.22;;
22780;SDS011;11557;50.884;4.322;2023-10-13T07:31:12;18.25;;;4.72;;
22780;SDS011;11557;50.884;4.322;2023-10-13T07:33:40;15.02;;;4.50;;
22780;SDS011;11557;50.884;4.322;2023-10-13T07:36:06;11.20;;;4.07;;
22780;SDS011;11557;50.884;4.322;2023-10-13T07:38:50;9.70;;;4.47;;
22780;SDS011;11557;50.884;4.322;2023-10-13T07:41:24;14.00;;;3.92;;
22780;SDS011;11557;50.884;4.322;2023-10-13T07:43:55;20.92;;;5.30;;
22780;SDS011;11557;50.884;4.322;2023-10-13T07:46:22;14.68;;;4.50;;
22780;SDS011;11557;50.884;4.322;2023-10-13T07:48:56;14.85;;;4.90;;
22780;SDS011;11557;50.884;4.322;2023-10-13T07:51:34;18.88;;;4.25;;
22780;SDS011;11557;50.884;4.322;2023-10-13T07:54:09;13.23;;;4.88;;
22780;SDS011;11557;50.884;4.322;2023-10-13T07:56:38;15.93;;;5.03;;
22780;SDS011;11557;50.884;4.322;2023-10-13T07:59:04;11.98;;;4.43;;
22780;SDS011;11557;50.884;4.322;2023-10-13T08:01:35;10.60;;;3.90;;
22780;SDS011;11557;50.884;4.322;2023-10-13T08:04:00;7.55;;;4.25;;
22780;SDS011;11557;50.884;4.322;2023-10-13T08:06:39;13.43;;;4.35;;
22780;SDS011;11557;50.884;4.322;2023-10-13T08:09:06;14.77;;;5.13;;
22780;SDS011;11557;50.884;4.322;2023-10-13T08:11:34;13.93;;;4.32;;
22780;SDS011;11557;50.884;4.322;2023-10-13T08:14:02;12.23;;;4.45;;
22780;SDS011;11557;50.884;4.322;2023-10-13T08:16:49;14.05;;;4.18;;
22780;SDS011;11557;50.884;4.322;2023-10-13T08:19:19;12.02;;;3.92;;
22780;SDS011;11557;50.884;4.322;2023-10-13T08:21:52;13.57;;;4.05;;
22780;SDS011;11557;50.884;4.322;2023-10-13T08:24:24;9.98;;;3.83;;
22780;SDS011;11557;50.884;4.322;2023-10-13T08:26:54;12.77;;;4.63;;
22780;SDS011;11557;50.884;4.322;2023-10-13T08:29:46;14.18;;;4.10;;
22780;SDS011;11557;50.884;4.322;2023-10-13T08:32:25;11.60;;;4.22;;
22780;SDS011;11557;50.884;4.322;2023-10-13T08:34:51;14.30;;;4.70;;
22780;SDS011;11557;50.884;4.322;2023-10-13T08:37:18;13.65;;;4.85;;
22780;SDS011;11557;50.884;4.322;2023-10-13T08:39:46;13.60;;;4.53;;
22780;SDS011;11557;50.884;4.322;2023-10-13T08:42:39;11.88;;;3.72;;
22780;SDS011;11557;50.884;4.322;2023-10-13T08:45:05;18.88;;;4.03;;
22780;SDS011;11557;50.884;4.322;2023-10-13T08:47:51;15.25;;;4.40;;
22780;SDS011;11557;50.884;4.322;2023-10-13T08:50:51;10.50;;;4.47;;
22780;SDS011;11557;50.884;4.322;2023-10-13T08:58:46;7.53;;;3.67;;
22780;SDS011;11557;50.884;4.322;2023-10-13T09:01:20;11.75;;;4.55;;
22780;SDS011;11557;50.884;4.322;2023-10-13T09:07:02;14.53;;;4.23;;
22780;SDS011;11557;50.884;4.322;2023-10-13T09:09:32;13.15;;;4.05;;
22780;SDS011;11557;50.884;4.322;2023-10-13T09:14:58;14.82;;;4.30;;
22780;SDS011;11557;50.884;4.322;2023-10-13T09:17:48;17.80;;;4.90;;
22780;SDS011;11557;50.884;4.322;2023-10-13T09:20:28;10.95;;;4.68;;
22780;SDS011;11557;50.884;4.322;2023-10-13T09:23:08;10.38;;;4.10;;
22780;SDS011;11557;50.884;4.322;2023-10-13T09:25:35;11.13;;;3.95;;
22780;SDS011;11557;50.884;4.322;2023-10-13T09:28:18;8.30;;;4.20;;
22780;SDS011;11557;50.884;4.322;2023-10-13T09:30:47;10.38;;;4.47;;
22780;SDS011;11557;50.884;4.322;2023-10-13T09:33:25;13.20;;;4.25;;
22780;SDS011;11557;50.884;4.322;2023-10-13T09:35:58;8.55;;;4.80;;
22780;SDS011;11557;50.884;4.322;2023-10-13T09:38:26;10.73;;;3.88;;
22780;SDS011;11557;50.884;4.322;2023-10-13T09:40:53;15.55;;;5.18;;
22780;SDS011;11557;50.884;4.322;2023-10-13T09:43:22;11.73;;;4.75;;
22780;SDS011;11557;50.884;4.322;2023-10-13T09:45:59;13.23;;;4.90;;
22780;SDS011;11557;50.884;4.322;2023-10-13T09:48:33;12.73;;;4.30;;
22780;SDS011;11557;50.884;4.322;2023-10-13T09:51:03;14.95;;;4.38;;
22780;SDS011;11557;50.884;4.322;2023-10-13T09:53:34;16.02;;;5.90;;
22780;SDS011;11557;50.884;4.322;2023-10-13T09:56:09;15.27;;;5.40;;
22780;SDS011;11557;50.884;4.322;2023-10-13T09:58:55;10.95;;;4.85;;
22780;SDS011;11557;50.884;4.322;2023-10-13T10:01:33;12.40;;;4.65;;
22780;SDS011;11557;50.884;4.322;2023-10-13T10:04:15;19.63;;;5.68;;
22780;SDS011;11557;50.884;4.322;2023-10-13T10:06:58;11.65;;;4.93;;
22780;SDS011;11557;50.884;4.322;2023-10-13T10:17:13;14.50;;;4.90;;
22780;SDS011;11557;50.884;4.322;2023-10-13T10:22:25;14.85;;;4.57;;
22780;SDS011;11557;50.884;4.322;2023-10-13T10:25:04;15.85;;;4.47;;
22780;SDS011;11557;50.884;4.322;2023-10-13T10:28:00;13.18;;;4.70;;
22780;SDS011;11557;50.884;4.322;2023-10-13T10:30:36;11.90;;;4.43;;
22780;SDS011;11557;50.884;4.322;2023-10-13T10:33:07;13.30;;;4.70;;
22780;SDS011;11557;50.884;4.322;2023-10-13T10:35:47;10.38;;;4.00;;
22780;SDS011;11557;50.884;4.322;2023-10-13T10:38:23;9.80;;;4.10;;
22780;SDS011;11557;50.884;4.322;2023-10-13T10:40:57;15.30;;;4.80;;
22780;SDS011;11557;50.884;4.322;2023-10-13T10:43:29;12.93;;;4.20;;
22780;SDS011;11557;50.884;4.322;2023-10-13T10:46:07;13.98;;;5.20;;
22780;SDS011;11557;50.884;4.322;2023-10-13T10:48:37;14.40;;;4.80;;
22780;SDS011;11557;50.884;4.322;2023-10-13T10:51:12;20.38;;;4.43;;
22780;SDS011;11557;50.884;4.322;2023-10-13T10:53:52;15.75;;;5.20;;
22780;SDS011;11557;50.884;4.322;2023-10-13T10:56:19;9.55;;;4.32;;
22780;SDS011;11557;50.884;4.322;2023-10-13T10:58:50;17.52;;;5.00;;
22780;SDS011;11557;50.884;4.322;2023-10-13T11:01:24;12.77;;;6.10;;
22780;SDS011;11557;50.884;4.322;2023-10-13T11:04:02;12.77;;;4.72;;
22780;SDS011;11557;50.884;4.322;2023-10-13T11:06:53;10.65;;;4.60;;
22780;SDS011;11557;50.884;4.322;2023-10-13T11:09:24;15.80;;;5.50;;
22780;SDS011;11557;50.884;4.322;2023-10-13T11:14:31;11.98;;;4.25;;
22780;SDS011;11557;50.884;4.322;2023-10-13T11:16:58;11.52;;;4.85;;
22780;SDS011;11557;50.884;4.322;2023-10-13T11:19:43;21.33;;;5.45;;
22780;SDS011;11557;50.884;4.322;2023-10-13T11:22:11;18.30;;;4.65;;
22780;SDS011;11557;50.884;4.322;2023-10-13T11:24:54;14.20;;;4.72;;
22780;SDS011;11557;50.884;4.322;2023-10-13T11:27:30;21.33;;;5.25;;
22780;SDS011;11557;50.884;4.322;2023-10-13T11:30:16;17.33;;;4.93;;
22780;SDS011;11557;50.884;4.322;2023-10-13T11:35:43;13.55;;;4.82;;
22780;SDS011;11557;50.884;4.322;2023-10-13T11:38:21;15.48;;;4.88;;
22780;SDS011;11557;50.884;4.322;2023-10-13T11:41:19;17.20;;;4.75;;
22780;SDS011;11557;50.884;4.322;2023-10-13T11:43:49;16.95;;;5.57;;
22780;SDS011;11557;50.884;4.322;2023-10-13T11:46:16;18.50;;;4.93;;
22780;SDS011;11557;50.884;4.322;2023-10-13T11:49:00;15.63;;;4.63;;
22780;SDS011;11557;50.884;4.322;2023-10-13T11:51:53;13.18;;;4.50;;
22780;SDS011;11557;50.884;4.322;2023-10-13T11:54:41;16.40;;;4.38;;
22780;SDS011;11557;50.884;4.322;2023-10-13T11:57:07;19.95;;;5.50;;
22780;SDS011;11557;50.884;4.322;2023-10-13T11:59:33;17.52;;;4.93;;
22780;SDS011;11557;50.884;4.322;2023-10-13T12:02:01;13.40;;;5.53;;
22780;SDS011;11557;50.884;4.322;2023-10-13T12:04:36;13.20;;;4.45;;
22780;SDS011;11557;50.884;4.322;2023-10-13T12:07:08;13.18;;;4.50;;
22780;SDS011;11557;50.884;4.322;2023-10-13T12:10:05;18.52;;;4.90;;
22780;SDS011;11557;50.884;4.322;2023-10-13T12:12:40;9.20;;;4.10;;
22780;SDS011;11557;50.884;4.322;2023-10-13T12:15:08;22.52;;;4.35;;
22780;SDS011;11557;50.884;4.322;2023-10-13T12:17:35;12.52;;;4.57;;
22780;SDS011;11557;50.884;4.322;2023-10-13T12:20:02;12.05;;;4.45;;
22780;SDS011;11557;50.884;4.322;2023-10-13T12:22:30;9.07;;;3.92;;
22780;SDS011;11557;50.884;4.322;2023-10-13T12:25:08;12.48;;;4.45;;
22780;SDS011;11557;50.884;4.322;2023-10-13T12:27:53;14.52;;;3.97;;
22780;SDS011;11557;50.884;4.322;2023-10-13T12:30:25;8.70;;;4.10;;
22780;SDS011;11557;50.884;4.322;2023-10-13T12:33:09;15.75;;;4.75;;
22780;SDS011;11557;50.884;4.322;2023-10-13T12:35:41;18.80;;;4.43;;
22780;SDS011;11557;50.884;4.322;2023-10-13T12:38:28;19.17;;;5.25;;
22780;SDS011;11557;50.884;4.322;2023-10-13T12:41:18;11.63;;;4.53;;
22780;SDS011;11557;50.884;4.322;2023-10-13T12:44:04;13.70;;;5.10;;
22780;SDS011;11557;50.884;4.322;2023-10-13T12:46:49;12.80;;;4.30;;
22780;SDS011;11557;50.884;4.322;2023-10-13T12:49:35;13.85;;;4.82;;
22780;SDS011;11557;50.884;4.322;2023-10-13T12:52:14;9.23;;;3.70;;
22780;SDS011;11557;50.884;4.322;2023-10-13T12:54:59;11.23;;;4.32;;
22780;SDS011;11557;50.884;4.322;2023-10-13T12:57:33;11.75;;;4.25;;
22780;SDS011;11557;50.884;4.322;2023-10-13T12:59:59;12.50;;;4.20;;
22780;SDS011;11557;50.884;4.322;2023-10-13T13:02:25;13.20;;;4.75;;
22780;SDS011;11557;50.884;4.322;2023-10-13T13:04:55;14.50;;;4.15;;
22780;SDS011;11557;50.884;4.322;2023-10-13T13:07:39;11.05;;;4.70;;
22780;SDS011;11557;50.884;4.322;2023-10-13T13:10:12;13.50;;;4.03;;
22780;SDS011;11557;50.884;4.322;2023-10-13T13:12:39;11.88;;;3.97;;
22780;SDS011;11557;50.884;4.322;2023-10-13T13:15:06;17.83;;;4.55;;
22780;SDS011;11557;50.884;4.322;2023-10-13T13:17:38;13.00;;;5.05;;
22780;SDS011;11557;50.884;4.322;2023-10-13T13:20:05;9.60;;;4.13;;
22780;SDS011;11557;50.884;4.322;2023-10-13T13:22:39;14.75;;;4.45;;
22780;SDS011;11557;50.884;4.322;2023-10-13T13:25:05;9.60;;;4.00;;
22780;SDS011;11557;50.884;4.322;2023-10-13T13:27:35;11.20;;;4.05;;
22780;SDS011;11557;50.884;4.322;2023-10-13T13:30:06;13.77;;;4.78;;
22780;SDS011;11557;50.884;4.322;2023-10-13T13:32:38;14.00;;;4.20;;
22780;SDS011;11557;50.884;4.322;2023-10-13T13:35:07;10.77;;;4.47;;
22780;SDS011;11557;50.884;4.322;2023-10-13T13:37:38;14.55;;;3.85;;
22780;SDS011;11557;50.884;4.322;2023-10-13T13:40:05;13.80;;;4.30;;
22780;SDS011;11557;50.884;4.322;2023-10-13T13:42:41;13.60;;;4.13;;
22780;SDS011;11557;50.884;4.322;2023-10-13T13:45:17;24.42;;;4.95;;
22780;SDS011;11557;50.884;4.322;2023-10-13T13:47:48;14.43;;;4.03;;
22780;SDS011;11557;50.884;4.322;2023-10-13T13:50:24;6.88;;;3.83;;
22780;SDS011;11557;50.884;4.322;2023-10-13T13:52:54;11.50;;;4.80;;
22780;SDS011;11557;50.884;4.322;2023-10-13T13:55:25;12.52;;;5.03;;
22780;SDS011;11557;50.884;4.322;2023-10-13T13:57:57;9.13;;;3.92;;
22780;SDS011;11557;50.884;4.322;2023-10-13T14:00:22;12.55;;;4.20;;
22780;SDS011;11557;50.884;4.322;2023-10-13T14:03:02;16.20;;;4.07;;
22780;SDS011;11557;50.884;4.322;2023-10-13T14:05:44;8.95;;;4.10;;
22780;SDS011;11557;50.884;4.322;2023-10-13T14:08:10;9.13;;;4.00;;
22780;SDS011;11557;50.884;4.322;2023-10-13T14:10:40;9.23;;;4.00;;
22780;SDS011;11557;50.884;4.322;2023-10-13T14:13:30;14.27;;;4.63;;
22780;SDS011;11557;50.884;4.322;2023-10-13T14:16:17;9.35;;;4.10;;
22780;SDS011;11557;50.884;4.322;2023-10-13T14:18:44;9.95;;;4.55;;
22780;SDS011;11557;50.884;4.322;2023-10-13T14:21:14;8.88;;;4.03;;
22780;SDS011;11557;50.884;4.322;2023-10-13T14:23:45;8.35;;;4.40;;
22780;SDS011;11557;50.884;4.322;2023-10-13T14:26:13;12.77;;;4.90;;
22780;SDS011;11557;50.884;4.322;2023-10-13T14:28:39;14.98;;;3.90;;
22780;SDS011;11557;50.884;4.322;2023-10-13T14:31:15;10.50;;;5.20;;
22780;SDS011;11557;50.884;4.322;2023-10-13T14:33:43;13.82;;;5.53;;
22780;SDS011;11557;50.884;4.322;2023-10-13T14:36:12;8.40;;;3.78;;
22780;SDS011;11557;50.884;4.322;2023-10-13T14:38:38;12.93;;;4.25;;
22780;SDS011;11557;50.884;4.322;2023-10-13T14:41:09;10.48;;;4.90;;
22780;SDS011;11557;50.884;4.322;2023-10-13T14:43:34;10.52;;;4.28;;
22780;SDS011;11557;50.884;4.322;2023-10-13T14:46:00;13.65;;;4.15;;
22780;SDS011;11557;50.884;4.322;2023-10-13T14:48:26;10.98;;;3.58;;
22780;SDS011;11557;50.884;4.322;2023-10-13T14:50:52;11.27;;;4.43;;
22780;SDS011;11557;50.884;4.322;2023-10-13T14:53:17;11.60;;;4.60;;
22780;SDS011;11557;50.884;4.322;2023-10-13T14:55:44;11.40;;;4.60;;
22780;SDS011;11557;50.884;4.322;2023-10-13T14:58:10;11.68;;;4.20;;
22780;SDS011;11557;50.884;4.322;2023-10-13T15:00:41;7.40;;;3.80;;
22780;SDS011;11557;50.884;4.322;2023-10-13T15:03:10;11.88;;;3.83;;
22780;SDS011;11557;50.884;4.322;2023-10-13T15:05:39;11.85;;;4.45;;
22780;SDS011;11557;50.884;4.322;2023-10-13T15:08:08;13.07;;;4.60;;
22780;SDS011;11557;50.884;4.322;2023-10-13T15:10:37;9.15;;;4.35;;
22780;SDS011;11557;50.884;4.322;2023-10-13T15:13:03;13.05;;;4.25;;
22780;SDS011;11557;50.884;4.322;2023-10-13T15:15:30;11.85;;;5.45;;
22780;SDS011;11557;50.884;4.322;2023-10-13T15:17:57;15.75;;;4.82;;
22780;SDS011;11557;50.884;4.322;2023-10-13T15:20:23;10.02;;;4.03;;
22780;SDS011;11557;50.884;4.322;2023-10-13T15:22:49;22.08;;;5.70;;
22780;SDS011;11557;50.884;4.322;2023-10-13T15:25:15;10.30;;;5.18;;
22780;SDS011;11557;50.884;4.322;2023-10-13T15:27:53;9.40;;;4.78;;
22780;SDS011;11557;50.884;4.322;2023-10-13T15:30:33;14.07;;;4.53;;
22780;SDS011;11557;50.884;4.322;2023-10-13T15:33:20;11.45;;;4.95;;
22780;SDS011;11557;50.884;4.322;2023-10-13T15:35:46;9.38;;;5.20;;
22780;SDS011;11557;50.884;4.322;2023-10-13T15:38:12;14.75;;;5.20;;
22780;SDS011;11557;50.884;4.322;2023-10-13T15:40:41;9.88;;;4.03;;